ADDS METAR Data INFO
IDs: Format: Raw Decoded Include TAF

Data at: 1133 UTC 29 May 2017

KGCC 291053Z AUTO 27009KT 10SM BKN080 06/04 A3020 RMK AO2 SLP214 T00610044 $
KGCC 290953Z AUTO 29010KT 10SM CLR 08/05 A3019 RMK AO2 SLP201 T00780050 $
KGCC 290853Z AUTO 28012KT 10SM CLR 08/06 A3019 RMK AO2 SLP196 T00780056 50002 $
KGCC 290753Z AUTO 29009KT 10SM FEW085 08/06 A3019 RMK AO2 SLP199 T00830056 $
KGCC 290653Z AUTO 29012KT 10SM CLR 09/06 A3018 RMK AO2 SLP194 T00890056 402170072 $
KGCC 290553Z AUTO 28012KT 10SM CLR 08/05 A3018 RMK AO2 SLP195 T00830050 50005 $
KGCC 290453Z AUTO 28012KT 10SM 09/06 A3018 RMK AO2 SLP199 T00890056 $
KGCC 290353Z AUTO 28012KT 10SM CLR 10/06 A3018 RMK AO2 SLP196 T01000056 $
KGCC 290253Z AUTO 30013KT 10SM FEW120 13/06 A3016 RMK AO2 SLP188 T01280056 58002 $
KGCC 290153Z AUTO A3016 RMK AO2 SLPNO PWINO FZRANO $
KGCC 290053Z AUTO A3016 RMK AO2 SLPNO PWINO FZRANO $
KGCC 282353Z AUTO 31016G28KT 10SM FEW034 BKN090 OVC110 14/06 A3017 RMK AO2 PK WND 35037/2254 PRESFR SLP198 T01390061 10217 20128 50011
KGCC 282253Z AUTO 36029G38KT 10SM FEW055 SCT070 15/06 A3020 RMK AO2 PK WND 35044/2229 WSHFT 2222 SLP208 T01500056
KGCC 282242Z AUTO 35028G39KT 10SM SCT060 BKN075 15/07 A3020 RMK AO2 PK WND 35044/2229 WSHFT 2222 T01500067
KGCC 282153Z AUTO 30019G28KT 10SM FEW080 SCT110 19/04 A3014 RMK AO2 PK WND 31036/2134 LTG DSNT N SLP185 T01890044
KGCC 282053Z AUTO 32019G29KT 10SM FEW080 SCT095 22/04 A3013 RMK AO2 PK WND 34033/2032 SLP175 T02170039 56010
KGCC 281953Z AUTO 32022G31KT 10SM FEW070 21/04 A3014 RMK AO2 PK WND 32031/1946 LTG DSNT E SLP179 T02060039
KGCC 281853Z AUTO 30020G29KT 10SM FEW065 21/06 A3015 RMK AO2 PK WND 32030/1836 SLP181 T02060056
KGCC 281753Z AUTO 31020G27KT 10SM FEW065 20/07 A3017 RMK AO2 PK WND 31027/1753 SLP190 T02000072 10200 20100 58005
KGCC 281653Z AUTO 32013KT 10SM BKN100 19/07 A3017 RMK AO2 SLP195 T01890067
KGCC 281553Z AUTO 33010G18KT 10SM CLR 18/06 A3018 RMK AO2 SLP201 T01780061
KGCC 281453Z AUTO 30013KT 10SM CLR 17/07 A3018 RMK AO2 SLP197 T01670067 51008
KGCC 281353Z AUTO 28010KT 10SM CLR 14/06 A3018 RMK AO2 SLP196 T01390061
KGCC 281253Z AUTO 27010KT 10SM BKN080 OVC095 11/06 A3017 RMK AO2 SLP194 T01110056
KGCC 281153Z AUTO 29011KT 10SM BKN085 OVC110 11/05 A3016 RMK AO2 SLP188 T01060050 10111 20072 53010
KGCC 281053Z AUTO 28011KT 10SM BKN110 10/04 A3014 RMK AO2 SLP181 T01000044
KGCC 280953Z AUTO 27013KT 10SM CLR 08/04 A3013 RMK AO2 SLP183 T00780039
KGCC 280853Z AUTO 26012KT 10SM CLR 09/04 A3012 RMK AO2 SLP180 T00890044 58003
KGCC 280753Z AUTO 26011KT 10SM CLR 09/04 A3013 RMK AO2 SLP180 T00940044
KGCC 280653Z AUTO 27011KT 10SM CLR 10/04 A3014 RMK AO2 SLP182 T01000044 401890056
KGCC 280553Z AUTO 27011KT 10SM CLR 09/04 A3013 RMK AO2 SLP184 T00890044 10178 20072 51005
KGCC 280453Z AUTO 26009KT 10SM CLR 08/04 A3013 RMK AO2 SLP186 T00830044
KGCC 280353Z AUTO 26008KT 10SM FEW110 07/05 A3013 RMK AO2 SLP186 T00720050
KGCC 280253Z AUTO 28009KT 10SM OVC085 12/05 A3012 RMK AO2 SLP179 T01220050 53010
KGCC 280153Z AUTO 31012KT 10SM CLR 15/04 A3011 RMK AO2 SLP175 T01500039
KGCC 280053Z AUTO 31017G23KT 10SM BKN110 18/03 A3010 RMK AO2 SLP171 T01780033
KGCC 272353Z AUTO 31018G24KT 10SM SCT075 BKN100 18/02 A3009 RMK AO2 SLP169 T01780022 10189 20156 53000


Page loaded:  11:33 UTC  |   04:33 AM Pacific  |   05:33 AM Mountain  |   06:33 AM Central  |   07:33 AM Eastern

 

ADVISORIES

FORECASTS

FORECASTS

OBSERVATIONS

USER TOOLS

ABOUT US